Aberford, United Kingdom
Current Conditions -  °F | °C
As of 12:50 PM on Friday 19 Dec 2014 (Local Time) from EGNM Reporting Station
Few Clouds Few Clouds  
Wind Chill: 32°   Ceiling: Unl
Heat Index: 43°   Visibility: 6mi
Dew Point: 36°   Wind: 35mph
Humidity: 76%   Direction: 260°W
Pressure: 29.77"   Gusts: 49mph
Location:  53.83°N, 1.34°W
Report Text: EGNM 191250Z 26030G43KT 9999 FEW020CB 06/02 Q1008
Loading
Personal Weather Stations






























Interactive Weather Map New forecast layout! Learn more

10-Day Weather Forecast

Advertisements
Track Severe Weather on mobile